Terminal Aerodrome Forecast
Issued by NWS

Home | Current Version | Previous Version | Text Only | Print | Product List | Glossary On
Versions: 1 2 3 4 5 6 7 8 9 10 11 12 13 14 15
000
FTUS45 KGJT 222339
TAFDRO
TAF
KDRO 222339Z 2300/2324 24010KT P6SM FEW110 SCT150 BKN200
     FM230200 25010KT P6SM SCT070 BKN150
     FM231000 23015G24KT P6SM VCSH BKN040
     FM231500 25020G33KT P6SM VCSH BKN030
     FM232100 27020G35KT P6SM SCT050=

USA.gov is the U.S. government's official web portal to all federal, state and local government web resources and services.